Time;durP1;ratioP1;P1;durP2;ratioP2;P2;SDS_P1;SDS_P2;PMS_P1;PMS_P2;Temp;Humidity;BMP_temperature;BMP_pressure;BME280_temperature;BME280_humidity;BME280_pressure;Samples;Min_cycle;Max_cycle;Signal;HPM_P1;HPM_P2
2022/12/27 00:01:58;;;;;;;74.45;46.72;;;;;;;;;;10120807;28;20082;-64
2022/12/27 00:06:52;;;;;;;73.10;48.35;;;;;;;;;;10121478;28;20048;-64
2022/12/27 00:11:47;;;;;;;79.82;50.78;;;;;;;;;;10124020;28;20413;-63
2022/12/27 00:16:41;;;;;;;73.20;45.88;;;;;;;;;;10124249;28;20045;-63
2022/12/27 00:21:35;;;;;;;77.47;47.80;;;;;;;;;;10127994;28;20122;-64
2022/12/27 00:26:30;;;;;;;70.43;47.45;;;;;;;;;;10125949;28;20056;-64
2022/12/27 00:31:27;;;;;;;80.82;49.50;;;;;;;;;;10125103;28;20039;-64
2022/12/27 00:36:24;;;;;;;80.32;49.25;;;;;;;;;;10122513;28;20072;-64
2022/12/27 00:41:18;;;;;;;75.80;47.00;;;;;;;;;;10124622;28;20056;-63
2022/12/27 00:46:12;;;;;;;72.32;44.80;;;;;;;;;;10124362;28;20052;-64
2022/12/27 00:51:14;;;;;;;76.57;46.10;;;;;;;;;;10125809;28;20060;-64
2022/12/27 00:56:16;;;;;;;80.80;48.80;;;;;;;;;;10124909;28;20185;-63
2022/12/27 01:01:16;;;;;;;86.18;49.35;;;;;;;;;;10124001;28;20049;-63
2022/12/27 01:06:14;;;;;;;84.93;50.97;;;;;;;;;;10118417;28;20052;-63
2022/12/27 01:11:08;;;;;;;90.47;53.38;;;;;;;;;;10121847;28;20416;-63
2022/12/27 01:16:01;;;;;;;89.65;53.47;;;;;;;;;;10121413;28;20048;-63
2022/12/27 01:20:55;;;;;;;90.47;50.78;;;;;;;;;;10123331;28;20052;-63
2022/12/27 01:25:49;;;;;;;87.75;53.03;;;;;;;;;;10109747;28;20075;-63
2022/12/27 01:30:42;;;;;;;99.60;53.13;;;;;;;;;;10125794;28;20044;-63
2022/12/27 01:35:36;;;;;;;94.88;54.85;;;;;;;;;;10117949;28;20449;-63
2022/12/27 01:40:29;;;;;;;92.90;56.60;;;;;;;;;;10108756;28;20049;-63
2022/12/27 01:45:25;;;;;;;90.07;54.45;;;;;;;;;;10118577;28;20056;-64
2022/12/27 01:50:31;;;;;;;91.93;52.65;;;;;;;;;;10106843;28;20065;-64
2022/12/27 01:55:55;;;;;;;82.90;51.33;;;;;;;;;;10107199;28;20482;-64
2022/12/27 02:00:49;;;;;;;76.30;46.65;;;;;;;;;;10102759;28;20064;-64
2022/12/27 02:05:44;;;;;;;69.10;44.30;;;;;;;;;;10099463;28;20053;-64
2022/12/27 02:10:37;;;;;;;70.03;45.15;;;;;;;;;;10116260;28;20061;-64
2022/12/27 02:15:32;;;;;;;71.70;44.03;;;;;;;;;;10111845;28;20049;-64
2022/12/27 02:20:30;;;;;;;69.78;45.20;;;;;;;;;;10106740;28;20493;-64
2022/12/27 02:25:41;;;;;;;66.47;40.70;;;;;;;;;;10113043;28;20061;-64
2022/12/27 02:30:35;;;;;;;65.00;40.08;;;;;;;;;;10112111;28;20049;-64
2022/12/27 02:35:38;;;;;;;58.80;37.28;;;;;;;;;;10115276;28;20091;-64
2022/12/27 02:57:11;;;;;;;57.33;36.88;;;;;;;;;;10125958;28;20048;-63
2022/12/27 03:07:30;;;;;;;48.83;34.55;;;;;;;;;;10117228;28;20563;-63
2022/12/27 03:18:21;;;;;;;54.25;37.67;;;;;;;;;;10105557;28;20044;-63
2022/12/27 03:33:42;;;;;;;48.17;32.42;;;;;;;;;;10098151;28;20379;-63
2022/12/27 03:38:42;;;;;;;51.83;33.33;;;;;;;;;;10112317;28;20045;-64
2022/12/27 03:43:36;;;;;;;48.78;32.53;;;;;;;;;;10117827;28;20508;-63
2022/12/27 03:48:34;;;;;;;44.03;30.80;;;;;;;;;;10109885;28;20128;-63
2022/12/27 03:53:33;;;;;;;53.08;34.10;;;;;;;;;;10120196;28;20075;-64
2022/12/27 03:58:27;;;;;;;53.47;36.17;;;;;;;;;;10118848;28;20071;-64
2022/12/27 04:03:21;;;;;;;49.35;34.13;;;;;;;;;;10120878;28;20068;-64
2022/12/27 04:39:24;;;;;;;45.97;31.83;;;;;;;;;;10121032;28;20049;-63
2022/12/27 04:55:16;;;;;;;42.15;30.08;;;;;;;;;;10112336;28;20041;-63
2022/12/27 05:05:16;;;;;;;43.80;28.77;;;;;;;;;;10123899;28;20049;-63
2022/12/27 05:15:21;;;;;;;37.40;25.10;;;;;;;;;;10118640;28;20084;-63
2022/12/27 05:20:16;;;;;;;40.70;27.75;;;;;;;;;;10112514;28;20053;-63
2022/12/27 05:30:22;;;;;;;39.65;28.05;;;;;;;;;;10115769;28;20131;-63
2022/12/27 05:35:16;;;;;;;36.97;24.45;;;;;;;;;;10131201;28;20045;-62
2022/12/27 05:40:12;;;;;;;38.45;26.33;;;;;;;;;;10112520;28;20063;-63
2022/12/27 05:45:08;;;;;;;34.80;24.20;;;;;;;;;;10108208;28;20088;-63
2022/12/27 05:50:03;;;;;;;30.80;24.08;;;;;;;;;;10125911;28;20064;-64
2022/12/27 05:54:56;;;;;;;35.65;24.33;;;;;;;;;;10116209;28;20052;-63
2022/12/27 05:59:50;;;;;;;36.30;25.33;;;;;;;;;;10113164;28;20057;-63
2022/12/27 06:04:44;;;;;;;29.33;20.13;;;;;;;;;;10095978;28;20564;-63
2022/12/27 06:09:38;;;;;;;29.77;21.10;;;;;;;;;;10104982;28;20126;-63
2022/12/27 06:14:34;;;;;;;28.83;20.05;;;;;;;;;;10091614;28;20053;-64
2022/12/27 06:19:28;;;;;;;30.55;23.02;;;;;;;;;;10104909;28;20053;-63
2022/12/27 06:24:22;;;;;;;32.70;21.25;;;;;;;;;;10113027;28;20060;-63
2022/12/27 06:29:16;;;;;;;32.45;22.08;;;;;;;;;;10112149;28;20050;-64
2022/12/27 06:34:10;;;;;;;32.03;23.63;;;;;;;;;;10121102;28;20473;-62
2022/12/27 06:39:04;;;;;;;24.75;20.08;;;;;;;;;;10112812;28;20053;-63
2022/12/27 06:43:58;;;;;;;29.08;21.38;;;;;;;;;;10122099;28;20055;-62
2022/12/27 06:48:52;;;;;;;31.60;23.05;;;;;;;;;;10104466;28;20045;-63
2022/12/27 06:53:46;;;;;;;30.58;20.63;;;;;;;;;;10111313;28;20061;-64
2022/12/27 06:58:40;;;;;;;27.92;20.38;;;;;;;;;;10138326;28;20036;-63
2022/12/27 07:03:34;;;;;;;27.25;18.58;;;;;;;;;;10121505;28;20053;-62
2022/12/27 07:08:28;;;;;;;29.30;20.98;;;;;;;;;;10140459;28;20051;-64
2022/12/27 07:13:22;;;;;;;29.92;19.73;;;;;;;;;;10120133;28;20045;-65
2022/12/27 07:18:16;;;;;;;34.95;21.65;;;;;;;;;;10145479;28;20049;-65
2022/12/27 07:23:09;;;;;;;31.45;23.00;;;;;;;;;;10145626;28;20084;-66
2022/12/27 07:28:11;;;;;;;34.63;25.65;;;;;;;;;;10142232;28;20053;-66
2022/12/27 07:33:05;;;;;;;33.05;24.83;;;;;;;;;;10139614;28;20044;-64
2022/12/27 07:37:59;;;;;;;33.33;23.10;;;;;;;;;;10111602;28;20398;-65
2022/12/27 07:42:52;;;;;;;30.65;24.52;;;;;;;;;;10111613;28;20558;-65
2022/12/27 07:47:46;;;;;;;33.78;24.65;;;;;;;;;;10125220;28;20044;-65
2022/12/27 07:52:40;;;;;;;28.65;23.08;;;;;;;;;;10135321;28;20056;-65
2022/12/27 07:57:34;;;;;;;27.70;21.20;;;;;;;;;;10127492;28;20064;-65
2022/12/27 08:02:28;;;;;;;24.58;20.40;;;;;;;;;;10113832;28;20497;-73
2022/12/27 08:07:21;;;;;;;36.30;23.63;;;;;;;;;;10131949;28;20088;-65
2022/12/27 08:12:15;;;;;;;36.30;25.08;;;;;;;;;;10106565;28;20128;-66
2022/12/27 08:17:19;;;;;;;32.80;22.92;;;;;;;;;;10138437;28;20045;-65
2022/12/27 08:22:14;;;;;;;30.27;22.70;;;;;;;;;;10144224;28;20481;-65
2022/12/27 08:27:08;;;;;;;30.83;22.90;;;;;;;;;;10122621;28;20049;-65
2022/12/27 08:32:02;;;;;;;30.77;21.80;;;;;;;;;;10102212;28;20056;-66
2022/12/27 08:36:55;;;;;;;29.10;21.30;;;;;;;;;;10124005;28;20052;-65
2022/12/27 08:41:49;;;;;;;28.92;20.00;;;;;;;;;;10110991;28;20136;-65
2022/12/27 08:46:44;;;;;;;28.23;20.05;;;;;;;;;;10102020;28;20044;-67
2022/12/27 08:51:38;;;;;;;24.23;20.55;;;;;;;;;;10093447;28;20092;-65
2022/12/27 08:56:34;;;;;;;34.50;22.25;;;;;;;;;;10094018;28;20057;-65
2022/12/27 09:01:27;;;;;;;27.58;19.63;;;;;;;;;;10104233;28;20053;-65
2022/12/27 09:06:23;;;;;;;22.92;16.25;;;;;;;;;;10112386;28;20056;-65
2022/12/27 09:11:21;;;;;;;21.20;16.60;;;;;;;;;;10107868;28;20574;-66
2022/12/27 09:16:20;;;;;;;20.33;15.90;;;;;;;;;;10123529;28;20131;-66
2022/12/27 09:21:14;;;;;;;19.65;17.00;;;;;;;;;;10129811;28;20501;-62
2022/12/27 09:26:10;;;;;;;22.73;18.42;;;;;;;;;;10113501;28;20049;-63
2022/12/27 09:31:04;;;;;;;22.92;17.27;;;;;;;;;;10109760;28;20053;-62
2022/12/27 09:36:11;;;;;;;21.42;16.73;;;;;;;;;;10097212;28;20486;-63
2022/12/27 09:41:12;;;;;;;20.25;17.10;;;;;;;;;;10090070;28;20060;-65
2022/12/27 09:46:23;;;;;;;23.15;16.70;;;;;;;;;;10098276;28;20049;-63
2022/12/27 09:51:17;;;;;;;19.02;17.05;;;;;;;;;;10095206;28;20053;-63
2022/12/27 09:56:12;;;;;;;21.70;17.80;;;;;;;;;;10080913;28;20129;-63
2022/12/27 10:01:20;;;;;;;50.40;40.72;;;;;;;;;;10097975;28;20060;-62
2022/12/27 10:06:31;;;;;;;22.02;16.60;;;;;;;;;;10093678;28;20072;-62
2022/12/27 10:11:37;;;;;;;17.85;15.10;;;;;;;;;;10086422;28;20050;-63
2022/12/27 10:16:43;;;;;;;20.42;18.33;;;;;;;;;;10097421;28;20106;-64
2022/12/27 10:21:41;;;;;;;18.70;16.65;;;;;;;;;;10095146;28;20037;-63
2022/12/27 10:26:36;;;;;;;21.08;17.65;;;;;;;;;;10094251;28;20064;-63
2022/12/27 10:31:30;;;;;;;18.50;16.35;;;;;;;;;;10095959;28;20095;-63
2022/12/27 10:36:26;;;;;;;24.58;21.77;;;;;;;;;;10109575;28;20052;-63
2022/12/27 10:41:23;;;;;;;22.88;18.10;;;;;;;;;;10084792;28;20059;-61
2022/12/27 10:46:19;;;;;;;18.25;16.33;;;;;;;;;;10093499;28;20128;-61
2022/12/27 10:51:13;;;;;;;25.55;18.65;;;;;;;;;;10091682;28;20061;-62
2022/12/27 10:56:18;;;;;;;22.10;17.90;;;;;;;;;;10079336;28;20045;-60
2022/12/27 11:01:23;;;;;;;22.40;17.77;;;;;;;;;;10096475;28;20052;-61
2022/12/27 11:06:23;;;;;;;22.08;18.02;;;;;;;;;;10101881;28;20064;-61
2022/12/27 11:11:26;;;;;;;23.35;18.50;;;;;;;;;;10103995;28;20786;-61
2022/12/27 11:16:33;;;;;;;20.65;16.50;;;;;;;;;;10103383;28;20055;-61
2022/12/27 11:21:28;;;;;;;26.55;16.80;;;;;;;;;;10097953;28;20479;-61
2022/12/27 11:26:40;;;;;;;22.02;16.58;;;;;;;;;;10090041;28;20056;-62
2022/12/27 11:31:47;;;;;;;20.15;16.45;;;;;;;;;;10083598;28;20049;-61
2022/12/27 11:36:45;;;;;;;17.60;15.68;;;;;;;;;;10105556;28;20084;-61
2022/12/27 11:41:49;;;;;;;26.65;18.52;;;;;;;;;;10109509;28;20430;-62
2022/12/27 11:46:58;;;;;;;25.98;21.83;;;;;;;;;;10109192;28;20045;-61
2022/12/27 11:52:22;;;;;;;20.27;16.88;;;;;;;;;;10108081;28;20061;-61
2022/12/27 11:57:27;;;;;;;20.98;15.65;;;;;;;;;;10104630;28;20451;-61
2022/12/27 12:02:39;;;;;;;20.15;16.05;;;;;;;;;;10109921;28;20061;-61
2022/12/27 12:08:00;;;;;;;21.10;18.75;;;;;;;;;;10110014;28;20052;-60
2022/12/27 12:13:13;;;;;;;23.50;19.25;;;;;;;;;;10068304;28;20064;-60
2022/12/27 12:18:23;;;;;;;18.77;15.30;;;;;;;;;;10107610;28;20060;-60
2022/12/27 12:23:35;;;;;;;22.23;16.83;;;;;;;;;;10109180;28;20106;-60
2022/12/27 12:28:53;;;;;;;21.77;17.23;;;;;;;;;;10107283;28;20136;-60
2022/12/27 12:34:11;;;;;;;21.45;16.75;;;;;;;;;;10101630;28;20552;-60
2022/12/27 12:40:03;;;;;;;27.40;18.17;;;;;;;;;;10108110;28;20051;-60
2022/12/27 12:45:34;;;;;;;25.45;19.38;;;;;;;;;;10060222;28;20063;-60
2022/12/27 12:50:53;;;;;;;25.25;20.83;;;;;;;;;;10071733;28;20179;-60
2022/12/27 12:56:11;;;;;;;27.80;21.05;;;;;;;;;;10107886;28;20559;-60
2022/12/27 13:01:28;;;;;;;26.67;21.63;;;;;;;;;;10106162;28;20740;-60
2022/12/27 13:06:55;;;;;;;28.05;21.05;;;;;;;;;;10107841;28;20413;-61
2022/12/27 13:12:01;;;;;;;26.92;21.80;;;;;;;;;;10067906;28;20045;-60
2022/12/27 13:16:54;;;;;;;30.15;23.48;;;;;;;;;;10105720;28;20079;-60
2022/12/27 13:22:20;;;;;;;30.30;24.25;;;;;;;;;;10106110;28;20048;-60
2022/12/27 13:27:34;;;;;;;29.92;23.45;;;;;;;;;;10100035;28;20457;-60
2022/12/27 13:32:55;;;;;;;24.85;21.63;;;;;;;;;;10093035;28;20091;-60
2022/12/27 13:38:15;;;;;;;27.33;23.15;;;;;;;;;;10106937;28;20049;-60
2022/12/27 13:43:30;;;;;;;38.03;26.50;;;;;;;;;;10106195;28;20065;-60
2022/12/27 13:48:26;;;;;;;34.25;27.92;;;;;;;;;;10083247;28;20044;-60
2022/12/27 13:53:49;;;;;;;33.72;26.63;;;;;;;;;;10074489;28;20061;-60
2022/12/27 13:59:22;;;;;;;35.95;28.00;;;;;;;;;;10084110;28;20049;-60
2022/12/27 14:04:30;;;;;;;38.13;29.35;;;;;;;;;;10088675;28;20546;-63
2022/12/27 14:09:34;;;;;;;40.60;30.80;;;;;;;;;;10077473;28;20052;-60
2022/12/27 14:14:28;;;;;;;40.63;30.42;;;;;;;;;;10083136;28;20049;-60
2022/12/27 14:19:21;;;;;;;38.45;30.48;;;;;;;;;;10092942;28;20092;-60
2022/12/27 14:24:36;;;;;;;38.47;29.20;;;;;;;;;;10103271;28;20049;-60
2022/12/27 14:30:16;;;;;;;35.72;26.83;;;;;;;;;;10101183;28;20038;-60
2022/12/27 14:35:48;;;;;;;41.15;30.60;;;;;;;;;;10098006;28;20053;-60
2022/12/27 14:41:25;;;;;;;46.03;29.60;;;;;;;;;;10095273;28;20045;-60
2022/12/27 14:46:39;;;;;;;41.97;30.58;;;;;;;;;;10080971;28;20513;-60
2022/12/27 14:51:45;;;;;;;44.40;32.90;;;;;;;;;;10092326;28;20085;-59
2022/12/27 14:57:27;;;;;;;45.55;31.27;;;;;;;;;;10075964;28;20037;-59
2022/12/27 15:02:50;;;;;;;46.10;33.45;;;;;;;;;;10081650;28;20053;-60
2022/12/27 15:08:20;;;;;;;58.33;35.07;;;;;;;;;;10091520;28;20087;-60
2022/12/27 15:13:35;;;;;;;48.03;34.20;;;;;;;;;;10078784;28;20307;-60
2022/12/27 15:18:47;;;;;;;43.20;33.17;;;;;;;;;;10103623;28;20079;-60
2022/12/27 15:24:09;;;;;;;46.13;34.08;;;;;;;;;;10105833;28;20070;-60
2022/12/27 15:29:27;;;;;;;48.88;34.50;;;;;;;;;;10098098;28;20057;-64
2022/12/27 15:34:29;;;;;;;49.53;34.80;;;;;;;;;;10101707;28;20421;-60
2022/12/27 15:39:34;;;;;;;72.63;38.17;;;;;;;;;;10091755;28;20072;-60
2022/12/27 15:44:39;;;;;;;49.78;34.05;;;;;;;;;;10102128;28;20134;-60
2022/12/27 15:49:47;;;;;;;44.88;34.15;;;;;;;;;;10099876;28;20056;-59
2022/12/27 15:54:59;;;;;;;52.22;38.50;;;;;;;;;;10099475;28;20044;-60
2022/12/27 16:00:11;;;;;;;52.05;36.65;;;;;;;;;;10099926;28;20135;-60
2022/12/27 16:05:07;;;;;;;49.42;34.10;;;;;;;;;;10092611;28;20061;-60
2022/12/27 16:10:37;;;;;;;50.75;35.15;;;;;;;;;;10099336;28;20518;-60
2022/12/27 16:15:47;;;;;;;46.10;33.58;;;;;;;;;;10100092;28;20052;-60
2022/12/27 16:20:40;;;;;;;44.13;35.05;;;;;;;;;;10088518;28;20469;-60
2022/12/27 16:25:41;;;;;;;51.50;36.85;;;;;;;;;;10088097;28;20115;-62
2022/12/27 16:30:40;;;;;;;50.65;37.38;;;;;;;;;;10089408;28;20045;-60
2022/12/27 16:35:34;;;;;;;49.00;36.20;;;;;;;;;;10099680;28;20077;-60
2022/12/27 16:40:49;;;;;;;47.58;35.17;;;;;;;;;;10100849;28;20076;-60
2022/12/27 16:46:21;;;;;;;50.15;34.15;;;;;;;;;;10096325;28;20057;-60
2022/12/27 16:51:41;;;;;;;46.72;35.00;;;;;;;;;;10100761;28;20119;-63
2022/12/27 16:56:36;;;;;;;48.28;37.70;;;;;;;;;;10089369;28;20053;-62
2022/12/27 17:01:34;;;;;;;53.78;36.40;;;;;;;;;;10105671;28;20063;-61
2022/12/27 17:06:27;;;;;;;50.95;36.60;;;;;;;;;;10108344;28;20055;-61
2022/12/27 17:11:30;;;;;;;47.10;34.42;;;;;;;;;;10105727;28;20053;-61
2022/12/27 17:16:26;;;;;;;48.05;35.20;;;;;;;;;;10104719;28;20716;-61
2022/12/27 17:21:35;;;;;;;51.63;36.50;;;;;;;;;;10095884;28;20060;-61
2022/12/27 17:26:53;;;;;;;48.05;36.70;;;;;;;;;;10106912;28;20060;-61
2022/12/27 17:31:58;;;;;;;49.90;37.35;;;;;;;;;;10106814;28;20080;-61
2022/12/27 17:36:55;;;;;;;56.63;39.47;;;;;;;;;;10106316;28;20128;-61
2022/12/27 17:47:49;;;;;;;62.20;44.35;;;;;;;;;;10081421;28;20045;-60
2022/12/27 17:58:40;;;;;;;65.57;44.67;;;;;;;;;;10104684;28;20041;-62
2022/12/27 18:03:44;;;;;;;56.47;38.95;;;;;;;;;;10103083;28;20521;-60
2022/12/27 18:08:39;;;;;;;60.55;41.90;;;;;;;;;;10104234;28;20045;-61
2022/12/27 18:13:36;;;;;;;59.53;42.25;;;;;;;;;;10092980;28;20100;-60
2022/12/27 18:18:32;;;;;;;59.05;42.85;;;;;;;;;;10087565;28;20073;-60
2022/12/27 18:23:26;;;;;;;54.67;37.85;;;;;;;;;;10105269;28;20049;-60
2022/12/27 18:28:42;;;;;;;58.45;41.20;;;;;;;;;;10105833;28;20049;-60
2022/12/27 18:33:41;;;;;;;54.60;38.05;;;;;;;;;;10103305;28;20132;-60
2022/12/27 18:38:38;;;;;;;57.85;41.35;;;;;;;;;;10103429;28;20049;-60
2022/12/27 18:43:31;;;;;;;63.17;41.63;;;;;;;;;;10110403;28;20057;-60
2022/12/27 18:48:27;;;;;;;56.88;38.47;;;;;;;;;;10113906;28;20063;-61
2022/12/27 18:53:21;;;;;;;60.42;41.38;;;;;;;;;;10119061;28;20098;-61
2022/12/27 18:58:18;;;;;;;60.10;40.92;;;;;;;;;;10119150;28;20060;-61
2022/12/27 19:03:18;;;;;;;68.80;43.33;;;;;;;;;;10117647;28;20044;-61
2022/12/27 19:08:18;;;;;;;65.45;43.17;;;;;;;;;;10117575;28;20048;-62
2022/12/27 19:13:41;;;;;;;64.32;43.78;;;;;;;;;;10107434;28;20068;-62
2022/12/27 19:18:37;;;;;;;62.63;42.25;;;;;;;;;;10115989;28;20048;-63
2022/12/27 19:23:36;;;;;;;70.25;43.97;;;;;;;;;;10114993;28;20080;-62
2022/12/27 19:28:31;;;;;;;62.40;44.20;;;;;;;;;;10117981;28;20076;-62
2022/12/27 19:33:26;;;;;;;68.13;44.83;;;;;;;;;;10117617;28;20124;-62
2022/12/27 19:38:23;;;;;;;75.10;49.42;;;;;;;;;;10109430;28;20061;-63
2022/12/27 19:43:18;;;;;;;72.85;46.95;;;;;;;;;;10106646;28;20065;-62
2022/12/27 19:48:12;;;;;;;71.30;47.95;;;;;;;;;;10087015;28;20054;-62
2022/12/27 19:53:05;;;;;;;74.63;48.97;;;;;;;;;;10085673;28;20053;-62
2022/12/27 19:57:59;;;;;;;71.60;46.10;;;;;;;;;;10070123;28;20128;-63
2022/12/27 20:02:52;;;;;;;89.90;52.42;;;;;;;;;;10077693;28;20513;-62
2022/12/27 20:07:47;;;;;;;89.68;55.13;;;;;;;;;;10103757;28;20045;-62
2022/12/27 20:12:41;;;;;;;90.45;53.67;;;;;;;;;;10097431;28;20102;-63
2022/12/27 20:17:35;;;;;;;93.20;52.38;;;;;;;;;;10084067;28;20464;-63
2022/12/27 20:22:36;;;;;;;92.55;52.33;;;;;;;;;;10086311;28;20056;-62
2022/12/27 20:27:30;;;;;;;85.97;52.45;;;;;;;;;;10086652;28;20049;-63
2022/12/27 20:32:23;;;;;;;79.47;45.95;;;;;;;;;;10083183;28;20049;-62
2022/12/27 20:37:18;;;;;;;66.50;41.72;;;;;;;;;;10084154;28;20045;-63
2022/12/27 20:42:16;;;;;;;74.32;44.90;;;;;;;;;;10082923;28;20057;-63
2022/12/27 20:47:11;;;;;;;68.35;43.75;;;;;;;;;;10081896;28;20139;-63
2022/12/27 20:52:05;;;;;;;83.75;50.03;;;;;;;;;;10084066;28;20050;-62
2022/12/27 20:57:00;;;;;;;85.18;46.78;;;;;;;;;;10083709;28;20133;-63
2022/12/27 21:01:53;;;;;;;87.93;49.80;;;;;;;;;;10091355;28;20045;-63
2022/12/27 21:06:49;;;;;;;105.00;55.17;;;;;;;;;;10104414;28;20057;-62
2022/12/27 21:11:43;;;;;;;109.07;55.97;;;;;;;;;;10094206;28;20397;-63
2022/12/27 21:16:37;;;;;;;132.70;57.35;;;;;;;;;;10097922;28;20489;-62
2022/12/27 21:21:34;;;;;;;104.13;53.50;;;;;;;;;;10094231;28;20509;-63
2022/12/27 21:26:36;;;;;;;117.53;54.80;;;;;;;;;;10091574;28;20052;-63
2022/12/27 21:31:30;;;;;;;119.65;55.15;;;;;;;;;;10096817;28;20083;-63
2022/12/27 21:36:27;;;;;;;120.00;58.97;;;;;;;;;;10092908;28;20167;-63
2022/12/27 21:41:29;;;;;;;122.15;57.63;;;;;;;;;;10088899;28;20456;-63
2022/12/27 21:46:24;;;;;;;120.93;52.80;;;;;;;;;;10086757;28;20088;-63
2022/12/27 21:51:18;;;;;;;118.70;56.97;;;;;;;;;;10086460;28;20514;-62
2022/12/27 21:56:14;;;;;;;106.38;57.85;;;;;;;;;;10092903;28;20128;-62
2022/12/27 22:01:10;;;;;;;107.35;51.88;;;;;;;;;;10092157;28;20040;-61
2022/12/27 22:06:14;;;;;;;99.38;47.47;;;;;;;;;;10065919;28;20045;-63
2022/12/27 22:11:09;;;;;;;106.47;49.85;;;;;;;;;;10084570;28;20057;-62
2022/12/27 22:16:07;;;;;;;100.10;52.15;;;;;;;;;;10082180;28;20049;-62
2022/12/27 22:21:06;;;;;;;90.13;47.00;;;;;;;;;;10083394;28;20045;-63
2022/12/27 22:26:00;;;;;;;105.63;52.97;;;;;;;;;;10083345;28;20124;-62
2022/12/27 22:30:56;;;;;;;90.43;45.97;;;;;;;;;;10095278;28;20048;-63
2022/12/27 22:36:01;;;;;;;97.03;48.80;;;;;;;;;;10083702;28;20069;-62
2022/12/27 22:41:02;;;;;;;93.07;49.95;;;;;;;;;;10096100;28;20080;-63
2022/12/27 22:45:59;;;;;;;92.18;46.90;;;;;;;;;;10096728;28;20053;-63
2022/12/27 22:50:52;;;;;;;96.18;48.03;;;;;;;;;;10100111;28;20049;-63
2022/12/27 22:55:48;;;;;;;101.82;47.85;;;;;;;;;;10091555;28;20087;-63
2022/12/27 23:00:45;;;;;;;95.60;47.33;;;;;;;;;;10098748;28;20111;-62
2022/12/27 23:05:42;;;;;;;91.05;47.80;;;;;;;;;;10096474;28;20057;-62
2022/12/27 23:10:38;;;;;;;88.68;46.85;;;;;;;;;;10094719;28;20051;-63
2022/12/27 23:15:35;;;;;;;86.88;45.30;;;;;;;;;;10097399;28;20132;-62
2022/12/27 23:20:33;;;;;;;91.10;47.15;;;;;;;;;;10096450;28;20098;-63
2022/12/27 23:25:28;;;;;;;89.85;45.72;;;;;;;;;;10095968;28;20045;-63
2022/12/27 23:30:22;;;;;;;95.63;48.05;;;;;;;;;;10094100;28;20049;-63
2022/12/27 23:35:16;;;;;;;91.35;45.45;;;;;;;;;;10096279;28;20054;-63
2022/12/27 23:40:13;;;;;;;86.93;46.92;;;;;;;;;;10102770;28;20052;-62
2022/12/27 23:45:10;;;;;;;96.70;49.85;;;;;;;;;;10094156;28;20044;-63
2022/12/27 23:50:06;;;;;;;99.75;49.60;;;;;;;;;;10098742;28;20413;-62
2022/12/27 23:55:01;;;;;;;100.90;49.95;;;;;;;;;;10105444;28;20063;-63
2022/12/27 23:59:58;;;;;;;99.75;45.65;;;;;;;;;;10104995;28;20069;-63
